sensor_id;sensor_type;location;lat;lon;timestamp;P1;durP1;ratioP1;P2;durP2;ratioP2
1879;SDS011;49285;49.002;8.390;2022-09-06T00:01:23;7.60;;;5.83;;
1879;SDS011;49285;49.002;8.390;2022-09-06T00:03:49;6.93;;;5.30;;
1879;SDS011;49285;49.002;8.390;2022-09-06T00:06:16;6.80;;;6.10;;
1879;SDS011;49285;49.002;8.390;2022-09-06T00:08:43;8.73;;;6.00;;
1879;SDS011;49285;49.002;8.390;2022-09-06T00:11:10;6.63;;;5.83;;
1879;SDS011;49285;49.002;8.390;2022-09-06T00:13:36;7.00;;;5.50;;
1879;SDS011;49285;49.002;8.390;2022-09-06T00:16:03;6.53;;;5.80;;
1879;SDS011;49285;49.002;8.390;2022-09-06T00:18:36;7.03;;;5.63;;
1879;SDS011;49285;49.002;8.390;2022-09-06T00:21:03;7.37;;;5.83;;
1879;SDS011;49285;49.002;8.390;2022-09-06T00:23:37;9.07;;;5.73;;
1879;SDS011;49285;49.002;8.390;2022-09-06T00:26:03;10.43;;;6.40;;
1879;SDS011;49285;49.002;8.390;2022-09-06T00:28:29;6.10;;;5.50;;
1879;SDS011;49285;49.002;8.390;2022-09-06T00:30:55;7.70;;;6.20;;
1879;SDS011;49285;49.002;8.390;2022-09-06T00:33:21;6.13;;;5.40;;
1879;SDS011;49285;49.002;8.390;2022-09-06T00:35:47;6.70;;;5.37;;
1879;SDS011;49285;49.002;8.390;2022-09-06T00:38:13;6.47;;;5.40;;
1879;SDS011;49285;49.002;8.390;2022-09-06T00:40:38;6.50;;;4.80;;
1879;SDS011;49285;49.002;8.390;2022-09-06T00:43:04;6.53;;;4.90;;
1879;SDS011;49285;49.002;8.390;2022-09-06T00:45:30;8.37;;;5.20;;
1879;SDS011;49285;49.002;8.390;2022-09-06T00:47:56;8.00;;;5.80;;
1879;SDS011;49285;49.002;8.390;2022-09-06T00:50:23;7.57;;;4.93;;
1879;SDS011;49285;49.002;8.390;2022-09-06T00:52:49;11.50;;;5.57;;
1879;SDS011;49285;49.002;8.390;2022-09-06T00:55:16;6.73;;;5.20;;
1879;SDS011;49285;49.002;8.390;2022-09-06T00:57:43;11.23;;;7.17;;
1879;SDS011;49285;49.002;8.390;2022-09-06T01:00:10;11.60;;;5.60;;
1879;SDS011;49285;49.002;8.390;2022-09-06T01:02:36;7.17;;;6.23;;
1879;SDS011;49285;49.002;8.390;2022-09-06T01:05:03;10.30;;;6.40;;
1879;SDS011;49285;49.002;8.390;2022-09-06T01:07:34;6.07;;;5.10;;
1879;SDS011;49285;49.002;8.390;2022-09-06T01:18:59;7.33;;;5.47;;
1879;SDS011;49285;49.002;8.390;2022-09-06T01:29:43;8.20;;;5.70;;
1879;SDS011;49285;49.002;8.390;2022-09-06T01:32:23;7.30;;;5.50;;
1879;SDS011;49285;49.002;8.390;2022-09-06T01:34:58;6.23;;;5.63;;
1879;SDS011;49285;49.002;8.390;2022-09-06T01:37:30;5.63;;;5.13;;
1879;SDS011;49285;49.002;8.390;2022-09-06T01:39:56;5.77;;;5.20;;
1879;SDS011;49285;49.002;8.390;2022-09-06T01:42:25;7.00;;;6.10;;
1879;SDS011;49285;49.002;8.390;2022-09-06T01:44:55;5.30;;;4.60;;
1879;SDS011;49285;49.002;8.390;2022-09-06T01:58:46;5.80;;;5.30;;
1879;SDS011;49285;49.002;8.390;2022-09-06T02:04:01;7.70;;;5.40;;
1879;SDS011;49285;49.002;8.390;2022-09-06T02:06:45;6.00;;;5.50;;
1879;SDS011;49285;49.002;8.390;2022-09-06T02:09:20;6.10;;;5.50;;
1879;SDS011;49285;49.002;8.390;2022-09-06T02:11:49;5.60;;;5.10;;
1879;SDS011;49285;49.002;8.390;2022-09-06T02:14:19;6.90;;;5.57;;
1879;SDS011;49285;49.002;8.390;2022-09-06T02:16:51;6.50;;;5.53;;
1879;SDS011;49285;49.002;8.390;2022-09-06T02:20:02;5.60;;;5.10;;
1879;SDS011;49285;49.002;8.390;2022-09-06T02:22:13;5.60;;;5.10;;
1879;SDS011;49285;49.002;8.390;2022-09-06T02:24:43;6.23;;;5.60;;
1879;SDS011;49285;49.002;8.390;2022-09-06T02:27:11;6.50;;;5.20;;
1879;SDS011;49285;49.002;8.390;2022-09-06T02:29:38;7.70;;;5.30;;
1879;SDS011;49285;49.002;8.390;2022-09-06T02:32:15;6.60;;;5.80;;
1879;SDS011;49285;49.002;8.390;2022-09-06T02:34:47;6.77;;;5.50;;
1879;SDS011;49285;49.002;8.390;2022-09-06T02:37:18;12.33;;;6.17;;
1879;SDS011;49285;49.002;8.390;2022-09-06T02:39:44;6.63;;;5.93;;
1879;SDS011;49285;49.002;8.390;2022-09-06T02:42:10;6.60;;;5.50;;
1879;SDS011;49285;49.002;8.390;2022-09-06T02:44:38;5.97;;;5.37;;
1879;SDS011;49285;49.002;8.390;2022-09-06T02:47:04;7.07;;;5.77;;
1879;SDS011;49285;49.002;8.390;2022-09-06T02:49:30;7.33;;;6.13;;
1879;SDS011;49285;49.002;8.390;2022-09-06T02:51:55;7.63;;;5.33;;
1879;SDS011;49285;49.002;8.390;2022-09-06T02:54:21;7.17;;;5.53;;
1879;SDS011;49285;49.002;8.390;2022-09-06T02:56:48;7.10;;;5.47;;
1879;SDS011;49285;49.002;8.390;2022-09-06T02:59:13;11.93;;;5.37;;
1879;SDS011;49285;49.002;8.390;2022-09-06T03:01:39;7.70;;;5.67;;
1879;SDS011;49285;49.002;8.390;2022-09-06T03:04:05;5.47;;;4.97;;
1879;SDS011;49285;49.002;8.390;2022-09-06T03:06:30;6.33;;;5.50;;
1879;SDS011;49285;49.002;8.390;2022-09-06T03:08:56;6.30;;;5.70;;
1879;SDS011;49285;49.002;8.390;2022-09-06T03:11:24;7.47;;;6.03;;
1879;SDS011;49285;49.002;8.390;2022-09-06T03:13:49;11.90;;;5.60;;
1879;SDS011;49285;49.002;8.390;2022-09-06T03:16:16;6.60;;;5.73;;
1879;SDS011;49285;49.002;8.390;2022-09-06T03:18:42;6.30;;;5.70;;
1879;SDS011;49285;49.002;8.390;2022-09-06T03:21:08;7.40;;;5.60;;
1879;SDS011;49285;49.002;8.390;2022-09-06T03:23:33;5.80;;;5.20;;
1879;SDS011;49285;49.002;8.390;2022-09-06T03:25:59;8.00;;;6.10;;
1879;SDS011;49285;49.002;8.390;2022-09-06T03:28:25;6.57;;;5.50;;
1879;SDS011;49285;49.002;8.390;2022-09-06T03:30:51;8.27;;;5.60;;
1879;SDS011;49285;49.002;8.390;2022-09-06T03:33:18;7.30;;;5.93;;
1879;SDS011;49285;49.002;8.390;2022-09-06T03:35:48;8.00;;;5.30;;
1879;SDS011;49285;49.002;8.390;2022-09-06T03:38:18;7.30;;;5.97;;
1879;SDS011;49285;49.002;8.390;2022-09-06T03:40:47;6.40;;;5.43;;
1879;SDS011;49285;49.002;8.390;2022-09-06T03:43:14;7.90;;;5.87;;
1879;SDS011;49285;49.002;8.390;2022-09-06T03:45:43;10.60;;;5.50;;
1879;SDS011;49285;49.002;8.390;2022-09-06T03:48:13;5.83;;;5.27;;
1879;SDS011;49285;49.002;8.390;2022-09-06T03:51:00;7.97;;;6.13;;
1879;SDS011;49285;49.002;8.390;2022-09-06T03:53:25;6.13;;;5.53;;
1879;SDS011;49285;49.002;8.390;2022-09-06T03:55:53;6.63;;;5.73;;
1879;SDS011;49285;49.002;8.390;2022-09-06T03:58:20;7.20;;;5.87;;
1879;SDS011;49285;49.002;8.390;2022-09-06T04:00:47;6.30;;;5.57;;
1879;SDS011;49285;49.002;8.390;2022-09-06T04:03:13;6.13;;;5.23;;
1879;SDS011;49285;49.002;8.390;2022-09-06T04:05:39;8.60;;;7.77;;
1879;SDS011;49285;49.002;8.390;2022-09-06T04:08:08;7.40;;;6.70;;
1879;SDS011;49285;49.002;8.390;2022-09-06T04:10:33;7.23;;;6.13;;
1879;SDS011;49285;49.002;8.390;2022-09-06T04:12:59;8.10;;;6.90;;
1879;SDS011;49285;49.002;8.390;2022-09-06T04:15:25;8.20;;;5.57;;
1879;SDS011;49285;49.002;8.390;2022-09-06T04:17:50;8.27;;;5.93;;
1879;SDS011;49285;49.002;8.390;2022-09-06T04:20:16;6.47;;;5.87;;
1879;SDS011;49285;49.002;8.390;2022-09-06T04:22:41;7.10;;;5.67;;
1879;SDS011;49285;49.002;8.390;2022-09-06T04:25:07;6.17;;;5.57;;
1879;SDS011;49285;49.002;8.390;2022-09-06T04:27:34;7.70;;;5.90;;
1879;SDS011;49285;49.002;8.390;2022-09-06T04:30:00;6.20;;;5.60;;
1879;SDS011;49285;49.002;8.390;2022-09-06T04:32:25;7.63;;;6.57;;
1879;SDS011;49285;49.002;8.390;2022-09-06T04:34:51;7.63;;;5.60;;
1879;SDS011;49285;49.002;8.390;2022-09-06T04:37:17;6.73;;;6.00;;
1879;SDS011;49285;49.002;8.390;2022-09-06T04:39:44;6.37;;;5.67;;
1879;SDS011;49285;49.002;8.390;2022-09-06T04:42:10;5.70;;;5.20;;
1879;SDS011;49285;49.002;8.390;2022-09-06T04:44:36;8.27;;;7.50;;
1879;SDS011;49285;49.002;8.390;2022-09-06T04:47:05;9.90;;;6.20;;
1879;SDS011;49285;49.002;8.390;2022-09-06T04:49:42;7.23;;;6.27;;
1879;SDS011;49285;49.002;8.390;2022-09-06T04:52:08;7.63;;;6.27;;
1879;SDS011;49285;49.002;8.390;2022-09-06T04:54:35;6.40;;;5.80;;
1879;SDS011;49285;49.002;8.390;2022-09-06T04:57:01;6.53;;;5.60;;
1879;SDS011;49285;49.002;8.390;2022-09-06T04:59:26;7.20;;;5.90;;
1879;SDS011;49285;49.002;8.390;2022-09-06T05:01:52;6.73;;;5.20;;
1879;SDS011;49285;49.002;8.390;2022-09-06T05:04:18;8.43;;;5.83;;
1879;SDS011;49285;49.002;8.390;2022-09-06T05:06:43;6.70;;;6.10;;
1879;SDS011;49285;49.002;8.390;2022-09-06T05:09:09;6.83;;;5.97;;
1879;SDS011;49285;49.002;8.390;2022-09-06T05:11:35;6.37;;;5.73;;
1879;SDS011;49285;49.002;8.390;2022-09-06T05:14:01;8.37;;;6.27;;
1879;SDS011;49285;49.002;8.390;2022-09-06T05:16:26;8.53;;;6.00;;
1879;SDS011;49285;49.002;8.390;2022-09-06T05:18:52;7.43;;;6.67;;
1879;SDS011;49285;49.002;8.390;2022-09-06T05:21:17;9.50;;;6.30;;
1879;SDS011;49285;49.002;8.390;2022-09-06T05:23:43;6.93;;;6.00;;
1879;SDS011;49285;49.002;8.390;2022-09-06T05:26:09;8.40;;;6.83;;
1879;SDS011;49285;49.002;8.390;2022-09-06T05:28:34;7.17;;;6.43;;
1879;SDS011;49285;49.002;8.390;2022-09-06T05:31:10;7.70;;;6.27;;
1879;SDS011;49285;49.002;8.390;2022-09-06T05:33:37;6.67;;;5.97;;
1879;SDS011;49285;49.002;8.390;2022-09-06T05:36:04;7.50;;;5.77;;
1879;SDS011;49285;49.002;8.390;2022-09-06T05:38:30;7.20;;;5.73;;
1879;SDS011;49285;49.002;8.390;2022-09-06T05:40:55;6.90;;;5.67;;
1879;SDS011;49285;49.002;8.390;2022-09-06T05:43:21;6.30;;;5.70;;
1879;SDS011;49285;49.002;8.390;2022-09-06T05:45:47;7.10;;;6.10;;
1879;SDS011;49285;49.002;8.390;2022-09-06T05:48:12;7.17;;;6.47;;
1879;SDS011;49285;49.002;8.390;2022-09-06T05:50:38;6.73;;;6.13;;
1879;SDS011;49285;49.002;8.390;2022-09-06T05:53:03;8.80;;;6.13;;
1879;SDS011;49285;49.002;8.390;2022-09-06T05:55:29;13.27;;;6.63;;
1879;SDS011;49285;49.002;8.390;2022-09-06T05:57:54;6.13;;;5.53;;
1879;SDS011;49285;49.002;8.390;2022-09-06T06:00:20;6.70;;;6.03;;
1879;SDS011;49285;49.002;8.390;2022-09-06T06:02:47;8.33;;;6.80;;
1879;SDS011;49285;49.002;8.390;2022-09-06T06:05:13;7.63;;;5.97;;
1879;SDS011;49285;49.002;8.390;2022-09-06T06:07:39;7.50;;;6.10;;
1879;SDS011;49285;49.002;8.390;2022-09-06T06:10:05;9.70;;;6.30;;
1879;SDS011;49285;49.002;8.390;2022-09-06T06:12:30;9.70;;;6.67;;
1879;SDS011;49285;49.002;8.390;2022-09-06T06:14:56;9.40;;;8.37;;
1879;SDS011;49285;49.002;8.390;2022-09-06T06:17:22;8.90;;;7.33;;
1879;SDS011;49285;49.002;8.390;2022-09-06T06:19:47;7.37;;;6.27;;
1879;SDS011;49285;49.002;8.390;2022-09-06T06:22:13;8.90;;;6.70;;
1879;SDS011;49285;49.002;8.390;2022-09-06T06:24:38;34.37;;;9.50;;
1879;SDS011;49285;49.002;8.390;2022-09-06T06:27:04;8.43;;;6.60;;
1879;SDS011;49285;49.002;8.390;2022-09-06T06:29:30;7.33;;;6.63;;
1879;SDS011;49285;49.002;8.390;2022-09-06T06:31:55;8.27;;;6.90;;
1879;SDS011;49285;49.002;8.390;2022-09-06T06:34:21;7.20;;;6.50;;
1879;SDS011;49285;49.002;8.390;2022-09-06T06:36:46;8.80;;;6.87;;
1879;SDS011;49285;49.002;8.390;2022-09-06T06:39:12;14.57;;;7.83;;
1879;SDS011;49285;49.002;8.390;2022-09-06T06:41:38;7.73;;;6.93;;
1879;SDS011;49285;49.002;8.390;2022-09-06T06:44:04;10.80;;;6.83;;
1879;SDS011;49285;49.002;8.390;2022-09-06T06:46:34;11.77;;;6.90;;
1879;SDS011;49285;49.002;8.390;2022-09-06T06:49:01;12.30;;;7.50;;
1879;SDS011;49285;49.002;8.390;2022-09-06T06:51:29;13.20;;;8.60;;
1879;SDS011;49285;49.002;8.390;2022-09-06T06:53:56;16.70;;;7.40;;
1879;SDS011;49285;49.002;8.390;2022-09-06T06:56:23;9.97;;;8.10;;
1879;SDS011;49285;49.002;8.390;2022-09-06T06:58:52;18.57;;;8.20;;
1879;SDS011;49285;49.002;8.390;2022-09-06T07:01:20;8.97;;;7.10;;
1879;SDS011;49285;49.002;8.390;2022-09-06T07:03:46;17.07;;;7.40;;
1879;SDS011;49285;49.002;8.390;2022-09-06T07:06:12;15.67;;;7.73;;
1879;SDS011;49285;49.002;8.390;2022-09-06T07:08:39;8.10;;;6.70;;
1879;SDS011;49285;49.002;8.390;2022-09-06T07:11:06;10.73;;;6.23;;
1879;SDS011;49285;49.002;8.390;2022-09-06T07:13:33;15.73;;;8.07;;
1879;SDS011;49285;49.002;8.390;2022-09-06T07:18:39;8.70;;;5.90;;
1879;SDS011;49285;49.002;8.390;2022-09-06T07:21:09;6.87;;;6.27;;
1879;SDS011;49285;49.002;8.390;2022-09-06T07:23:39;7.17;;;5.67;;
1879;SDS011;49285;49.002;8.390;2022-09-06T07:26:05;9.17;;;6.03;;
1879;SDS011;49285;49.002;8.390;2022-09-06T07:28:31;6.63;;;6.00;;
1879;SDS011;49285;49.002;8.390;2022-09-06T07:30:57;7.37;;;6.57;;
1879;SDS011;49285;49.002;8.390;2022-09-06T07:33:24;9.67;;;7.10;;
1879;SDS011;49285;49.002;8.390;2022-09-06T07:35:54;6.27;;;5.60;;
1879;SDS011;49285;49.002;8.390;2022-09-06T07:38:24;13.40;;;7.17;;
1879;SDS011;49285;49.002;8.390;2022-09-06T07:40:57;9.87;;;6.97;;
1879;SDS011;49285;49.002;8.390;2022-09-06T07:43:25;9.83;;;5.60;;
1879;SDS011;49285;49.002;8.390;2022-09-06T07:46:24;10.23;;;6.07;;
1879;SDS011;49285;49.002;8.390;2022-09-06T07:48:43;6.73;;;6.03;;
1879;SDS011;49285;49.002;8.390;2022-09-06T07:51:19;7.80;;;6.20;;
1879;SDS011;49285;49.002;8.390;2022-09-06T07:53:49;13.03;;;7.57;;
1879;SDS011;49285;49.002;8.390;2022-09-06T07:56:17;20.80;;;7.93;;
1879;SDS011;49285;49.002;8.390;2022-09-06T07:58:44;8.90;;;6.00;;
1879;SDS011;49285;49.002;8.390;2022-09-06T08:03:58;18.37;;;9.70;;
1879;SDS011;49285;49.002;8.390;2022-09-06T08:06:26;9.33;;;6.27;;
1879;SDS011;49285;49.002;8.390;2022-09-06T08:08:53;9.37;;;6.73;;
1879;SDS011;49285;49.002;8.390;2022-09-06T08:11:19;10.73;;;6.57;;
1879;SDS011;49285;49.002;8.390;2022-09-06T08:13:49;7.73;;;6.43;;
1879;SDS011;49285;49.002;8.390;2022-09-06T08:16:15;7.17;;;6.47;;
1879;SDS011;49285;49.002;8.390;2022-09-06T08:18:42;7.40;;;6.70;;
1879;SDS011;49285;49.002;8.390;2022-09-06T08:21:12;7.50;;;6.80;;
1879;SDS011;49285;49.002;8.390;2022-09-06T08:23:40;10.37;;;7.50;;
1879;SDS011;49285;49.002;8.390;2022-09-06T08:26:09;7.83;;;7.13;;
1879;SDS011;49285;49.002;8.390;2022-09-06T08:28:34;11.00;;;7.93;;
1879;SDS011;49285;49.002;8.390;2022-09-06T08:31:07;8.10;;;6.60;;
1879;SDS011;49285;49.002;8.390;2022-09-06T08:33:35;11.13;;;7.67;;
1879;SDS011;49285;49.002;8.390;2022-09-06T08:36:01;14.20;;;7.50;;
1879;SDS011;49285;49.002;8.390;2022-09-06T08:38:28;7.73;;;6.90;;
1879;SDS011;49285;49.002;8.390;2022-09-06T08:40:54;12.40;;;7.53;;
1879;SDS011;49285;49.002;8.390;2022-09-06T08:43:34;9.23;;;7.17;;
1879;SDS011;49285;49.002;8.390;2022-09-06T08:46:00;11.13;;;7.10;;
1879;SDS011;49285;49.002;8.390;2022-09-06T08:48:29;9.70;;;7.10;;
1879;SDS011;49285;49.002;8.390;2022-09-06T08:53:35;7.60;;;6.63;;
1879;SDS011;49285;49.002;8.390;2022-09-06T08:56:13;10.80;;;7.47;;
1879;SDS011;49285;49.002;8.390;2022-09-06T08:58:54;7.80;;;6.13;;
1879;SDS011;49285;49.002;8.390;2022-09-06T09:01:40;7.77;;;7.00;;
1879;SDS011;49285;49.002;8.390;2022-09-06T09:04:17;7.00;;;6.30;;
1879;SDS011;49285;49.002;8.390;2022-09-06T09:06:48;8.10;;;7.27;;
1879;SDS011;49285;49.002;8.390;2022-09-06T09:09:18;9.03;;;6.53;;
1879;SDS011;49285;49.002;8.390;2022-09-06T09:11:46;7.60;;;6.87;;
1879;SDS011;49285;49.002;8.390;2022-09-06T09:14:15;17.77;;;7.70;;
1879;SDS011;49285;49.002;8.390;2022-09-06T09:16:48;11.43;;;7.53;;
1879;SDS011;49285;49.002;8.390;2022-09-06T09:19:19;14.33;;;7.83;;
1879;SDS011;49285;49.002;8.390;2022-09-06T09:21:45;9.93;;;7.57;;
1879;SDS011;49285;49.002;8.390;2022-09-06T09:24:11;8.83;;;7.60;;
1879;SDS011;49285;49.002;8.390;2022-09-06T09:29:29;7.53;;;5.70;;
1879;SDS011;49285;49.002;8.390;2022-09-06T09:31:55;10.37;;;6.77;;
1879;SDS011;49285;49.002;8.390;2022-09-06T09:34:28;7.10;;;6.20;;
1879;SDS011;49285;49.002;8.390;2022-09-06T09:39:37;12.00;;;6.40;;
1879;SDS011;49285;49.002;8.390;2022-09-06T09:42:03;7.57;;;6.27;;
1879;SDS011;49285;49.002;8.390;2022-09-06T09:44:31;8.97;;;6.00;;
1879;SDS011;49285;49.002;8.390;2022-09-06T09:46:57;10.47;;;6.90;;
1879;SDS011;49285;49.002;8.390;2022-09-06T09:52:06;11.07;;;6.87;;
1879;SDS011;49285;49.002;8.390;2022-09-06T09:54:42;7.40;;;6.20;;
1879;SDS011;49285;49.002;8.390;2022-09-06T09:57:12;10.37;;;5.87;;
1879;SDS011;49285;49.002;8.390;2022-09-06T09:59:42;9.17;;;6.07;;
1879;SDS011;49285;49.002;8.390;2022-09-06T10:04:50;13.90;;;6.50;;
1879;SDS011;49285;49.002;8.390;2022-09-06T10:07:24;8.43;;;5.67;;
1879;SDS011;49285;49.002;8.390;2022-09-06T10:09:57;8.20;;;6.50;;
1879;SDS011;49285;49.002;8.390;2022-09-06T10:12:35;6.83;;;6.23;;
1879;SDS011;49285;49.002;8.390;2022-09-06T10:15:09;9.07;;;6.70;;
1879;SDS011;49285;49.002;8.390;2022-09-06T10:17:49;8.17;;;6.93;;
1879;SDS011;49285;49.002;8.390;2022-09-06T10:20:15;17.00;;;6.60;;
1879;SDS011;49285;49.002;8.390;2022-09-06T10:36:10;8.80;;;6.13;;
1879;SDS011;49285;49.002;8.390;2022-09-06T10:38:49;6.23;;;5.10;;
1879;SDS011;49285;49.002;8.390;2022-09-06T10:47:13;8.60;;;6.10;;
1879;SDS011;49285;49.002;8.390;2022-09-06T10:49:40;8.80;;;6.30;;
1879;SDS011;49285;49.002;8.390;2022-09-06T10:52:11;6.83;;;5.03;;
1879;SDS011;49285;49.002;8.390;2022-09-06T10:54:41;6.77;;;5.73;;
1879;SDS011;49285;49.002;8.390;2022-09-06T10:58:11;10.83;;;5.57;;
1879;SDS011;49285;49.002;8.390;2022-09-06T11:00:09;11.33;;;5.50;;
1879;SDS011;49285;49.002;8.390;2022-09-06T11:05:51;7.03;;;6.30;;
1879;SDS011;49285;49.002;8.390;2022-09-06T11:11:23;8.93;;;5.10;;
1879;SDS011;49285;49.002;8.390;2022-09-06T11:13:55;11.13;;;5.10;;
1879;SDS011;49285;49.002;8.390;2022-09-06T11:16:24;5.30;;;4.43;;
1879;SDS011;49285;49.002;8.390;2022-09-06T11:19:01;7.50;;;4.60;;
1879;SDS011;49285;49.002;8.390;2022-09-06T11:29:59;10.53;;;4.50;;
1879;SDS011;49285;49.002;8.390;2022-09-06T11:32:28;9.17;;;4.67;;
1879;SDS011;49285;49.002;8.390;2022-09-06T11:35:28;5.33;;;4.37;;
1879;SDS011;49285;49.002;8.390;2022-09-06T11:38:18;8.93;;;5.20;;
1879;SDS011;49285;49.002;8.390;2022-09-06T11:40:57;9.60;;;4.70;;
1879;SDS011;49285;49.002;8.390;2022-09-06T11:46:10;7.03;;;4.23;;
1879;SDS011;49285;49.002;8.390;2022-09-06T11:49:00;9.07;;;4.13;;
1879;SDS011;49285;49.002;8.390;2022-09-06T11:51:34;11.20;;;5.10;;
1879;SDS011;49285;49.002;8.390;2022-09-06T11:54:03;6.23;;;3.90;;
1879;SDS011;49285;49.002;8.390;2022-09-06T11:56:39;8.30;;;3.57;;
1879;SDS011;49285;49.002;8.390;2022-09-06T12:04:21;12.43;;;4.63;;
1879;SDS011;49285;49.002;8.390;2022-09-06T12:09:45;5.73;;;4.20;;
1879;SDS011;49285;49.002;8.390;2022-09-06T12:12:11;6.07;;;3.97;;
1879;SDS011;49285;49.002;8.390;2022-09-06T12:15:24;6.17;;;4.30;;
1879;SDS011;49285;49.002;8.390;2022-09-06T12:17:50;9.43;;;4.47;;
1879;SDS011;49285;49.002;8.390;2022-09-06T12:25:59;6.23;;;3.67;;
1879;SDS011;49285;49.002;8.390;2022-09-06T12:28:27;5.60;;;3.63;;
1879;SDS011;49285;49.002;8.390;2022-09-06T12:30:59;6.70;;;3.70;;
1879;SDS011;49285;49.002;8.390;2022-09-06T12:33:34;9.07;;;4.20;;
1879;SDS011;49285;49.002;8.390;2022-09-06T12:36:20;5.60;;;3.70;;
1879;SDS011;49285;49.002;8.390;2022-09-06T12:38:59;5.90;;;3.63;;
1879;SDS011;49285;49.002;8.390;2022-09-06T12:41:31;8.13;;;4.27;;
1879;SDS011;49285;49.002;8.390;2022-09-06T12:44:03;7.03;;;3.80;;
1879;SDS011;49285;49.002;8.390;2022-09-06T12:46:31;7.10;;;4.10;;
1879;SDS011;49285;49.002;8.390;2022-09-06T12:48:58;6.60;;;4.33;;
1879;SDS011;49285;49.002;8.390;2022-09-06T12:51:28;6.87;;;3.53;;
1879;SDS011;49285;49.002;8.390;2022-09-06T12:54:01;6.30;;;4.30;;
1879;SDS011;49285;49.002;8.390;2022-09-06T12:56:29;4.33;;;3.83;;
1879;SDS011;49285;49.002;8.390;2022-09-06T12:59:14;4.00;;;3.20;;
1879;SDS011;49285;49.002;8.390;2022-09-06T13:01:59;12.13;;;7.20;;
1879;SDS011;49285;49.002;8.390;2022-09-06T13:07:05;9.33;;;3.80;;
1879;SDS011;49285;49.002;8.390;2022-09-06T13:09:36;8.00;;;3.40;;
1879;SDS011;49285;49.002;8.390;2022-09-06T13:12:07;6.47;;;3.87;;
1879;SDS011;49285;49.002;8.390;2022-09-06T13:14:41;7.90;;;3.80;;
1879;SDS011;49285;49.002;8.390;2022-09-06T13:17:07;5.23;;;3.63;;
1879;SDS011;49285;49.002;8.390;2022-09-06T13:19:46;5.33;;;3.67;;
1879;SDS011;49285;49.002;8.390;2022-09-06T13:22:35;7.03;;;5.00;;
1879;SDS011;49285;49.002;8.390;2022-09-06T13:25:32;6.40;;;4.40;;
1879;SDS011;49285;49.002;8.390;2022-09-06T13:27:57;4.77;;;4.03;;
1879;SDS011;49285;49.002;8.390;2022-09-06T13:32:58;5.77;;;3.40;;
1879;SDS011;49285;49.002;8.390;2022-09-06T13:35:25;3.67;;;3.30;;
1879;SDS011;49285;49.002;8.390;2022-09-06T13:40:57;6.70;;;3.60;;
1879;SDS011;49285;49.002;8.390;2022-09-06T13:43:24;4.93;;;3.63;;
1879;SDS011;49285;49.002;8.390;2022-09-06T13:46:02;9.80;;;4.17;;
1879;SDS011;49285;49.002;8.390;2022-09-06T13:48:30;7.97;;;3.80;;
1879;SDS011;49285;49.002;8.390;2022-09-06T13:50:56;7.57;;;3.67;;
1879;SDS011;49285;49.002;8.390;2022-09-06T13:53:22;3.50;;;3.00;;
1879;SDS011;49285;49.002;8.390;2022-09-06T13:55:48;10.13;;;3.60;;
1879;SDS011;49285;49.002;8.390;2022-09-06T13:58:13;5.20;;;3.40;;
1879;SDS011;49285;49.002;8.390;2022-09-06T14:00:39;7.00;;;3.40;;
1879;SDS011;49285;49.002;8.390;2022-09-06T14:03:05;4.80;;;3.73;;
1879;SDS011;49285;49.002;8.390;2022-09-06T14:05:32;4.00;;;3.30;;
1879;SDS011;49285;49.002;8.390;2022-09-06T14:08:02;7.20;;;3.37;;
1879;SDS011;49285;49.002;8.390;2022-09-06T14:10:28;5.93;;;3.27;;
1879;SDS011;49285;49.002;8.390;2022-09-06T14:12:54;5.90;;;3.10;;
1879;SDS011;49285;49.002;8.390;2022-09-06T14:15:20;5.60;;;3.50;;
1879;SDS011;49285;49.002;8.390;2022-09-06T14:17:45;4.67;;;3.70;;
1879;SDS011;49285;49.002;8.390;2022-09-06T14:20:11;4.60;;;3.20;;
1879;SDS011;49285;49.002;8.390;2022-09-06T14:22:37;3.10;;;2.80;;
1879;SDS011;49285;49.002;8.390;2022-09-06T14:25:02;4.70;;;3.00;;
1879;SDS011;49285;49.002;8.390;2022-09-06T14:27:30;3.50;;;3.20;;
1879;SDS011;49285;49.002;8.390;2022-09-06T14:29:56;4.53;;;2.90;;
1879;SDS011;49285;49.002;8.390;2022-09-06T14:32:22;4.63;;;3.60;;
1879;SDS011;49285;49.002;8.390;2022-09-06T14:34:48;6.50;;;3.57;;
1879;SDS011;49285;49.002;8.390;2022-09-06T14:37:14;5.67;;;2.93;;
1879;SDS011;49285;49.002;8.390;2022-09-06T14:39:40;3.57;;;2.80;;
1879;SDS011;49285;49.002;8.390;2022-09-06T14:42:05;7.57;;;3.73;;
1879;SDS011;49285;49.002;8.390;2022-09-06T14:44:32;4.53;;;3.33;;
1879;SDS011;49285;49.002;8.390;2022-09-06T14:46:58;3.20;;;2.90;;
1879;SDS011;49285;49.002;8.390;2022-09-06T14:49:24;5.00;;;3.57;;
1879;SDS011;49285;49.002;8.390;2022-09-06T14:51:50;5.23;;;3.30;;
1879;SDS011;49285;49.002;8.390;2022-09-06T14:54:17;3.57;;;2.80;;
1879;SDS011;49285;49.002;8.390;2022-09-06T14:56:46;3.97;;;3.30;;
1879;SDS011;49285;49.002;8.390;2022-09-06T14:59:11;5.33;;;3.33;;
1879;SDS011;49285;49.002;8.390;2022-09-06T15:01:37;7.20;;;6.50;;
1879;SDS011;49285;49.002;8.390;2022-09-06T15:04:05;3.23;;;2.80;;
1879;SDS011;49285;49.002;8.390;2022-09-06T15:06:33;6.83;;;2.93;;
1879;SDS011;49285;49.002;8.390;2022-09-06T15:09:00;5.17;;;2.90;;
1879;SDS011;49285;49.002;8.390;2022-09-06T15:14:03;3.83;;;2.80;;
1879;SDS011;49285;49.002;8.390;2022-09-06T15:16:30;5.00;;;3.17;;
1879;SDS011;49285;49.002;8.390;2022-09-06T15:18:56;3.60;;;2.97;;
1879;SDS011;49285;49.002;8.390;2022-09-06T15:21:22;6.37;;;3.10;;
1879;SDS011;49285;49.002;8.390;2022-09-06T15:23:49;3.67;;;3.37;;
1879;SDS011;49285;49.002;8.390;2022-09-06T15:26:16;5.40;;;3.90;;
1879;SDS011;49285;49.002;8.390;2022-09-06T15:28:43;5.50;;;3.67;;
1879;SDS011;49285;49.002;8.390;2022-09-06T15:31:09;4.37;;;3.27;;
1879;SDS011;49285;49.002;8.390;2022-09-06T15:33:36;4.87;;;3.50;;
1879;SDS011;49285;49.002;8.390;2022-09-06T15:36:02;4.07;;;3.63;;
1879;SDS011;49285;49.002;8.390;2022-09-06T15:38:33;3.20;;;2.90;;
1879;SDS011;49285;49.002;8.390;2022-09-06T15:41:07;4.33;;;3.20;;
1879;SDS011;49285;49.002;8.390;2022-09-06T15:43:35;4.80;;;3.80;;
1879;SDS011;49285;49.002;8.390;2022-09-06T15:46:08;3.73;;;3.00;;
1879;SDS011;49285;49.002;8.390;2022-09-06T15:48:44;5.47;;;3.53;;
1879;SDS011;49285;49.002;8.390;2022-09-06T15:51:13;7.30;;;5.03;;
1879;SDS011;49285;49.002;8.390;2022-09-06T15:53:40;6.40;;;5.73;;
1879;SDS011;49285;49.002;8.390;2022-09-06T15:56:06;9.67;;;7.73;;
1879;SDS011;49285;49.002;8.390;2022-09-06T15:58:33;23.23;;;19.60;;
1879;SDS011;49285;49.002;8.390;2022-09-06T16:01:02;13.07;;;11.67;;
1879;SDS011;49285;49.002;8.390;2022-09-06T16:03:39;20.60;;;18.60;;
1879;SDS011;49285;49.002;8.390;2022-09-06T16:06:13;7.10;;;6.40;;
1879;SDS011;49285;49.002;8.390;2022-09-06T16:08:47;10.07;;;7.70;;
1879;SDS011;49285;49.002;8.390;2022-09-06T16:11:15;10.90;;;9.63;;
1879;SDS011;49285;49.002;8.390;2022-09-06T16:13:42;10.70;;;8.70;;
1879;SDS011;49285;49.002;8.390;2022-09-06T16:16:10;14.37;;;6.97;;
1879;SDS011;49285;49.002;8.390;2022-09-06T16:18:38;16.53;;;13.70;;
1879;SDS011;49285;49.002;8.390;2022-09-06T16:21:16;6.70;;;5.80;;
1879;SDS011;49285;49.002;8.390;2022-09-06T16:23:49;8.87;;;6.90;;
1879;SDS011;49285;49.002;8.390;2022-09-06T16:26:18;8.60;;;5.23;;
1879;SDS011;49285;49.002;8.390;2022-09-06T16:28:46;10.93;;;6.63;;
1879;SDS011;49285;49.002;8.390;2022-09-06T16:31:12;8.37;;;7.33;;
1879;SDS011;49285;49.002;8.390;2022-09-06T16:33:38;7.80;;;5.90;;
1879;SDS011;49285;49.002;8.390;2022-09-06T16:36:05;4.10;;;3.47;;
1879;SDS011;49285;49.002;8.390;2022-09-06T16:38:36;7.63;;;4.60;;
1879;SDS011;49285;49.002;8.390;2022-09-06T16:41:11;4.63;;;3.73;;
1879;SDS011;49285;49.002;8.390;2022-09-06T16:43:39;7.33;;;4.60;;
1879;SDS011;49285;49.002;8.390;2022-09-06T16:46:05;7.13;;;4.30;;
1879;SDS011;49285;49.002;8.390;2022-09-06T16:48:31;4.13;;;3.60;;
1879;SDS011;49285;49.002;8.390;2022-09-06T16:51:06;7.90;;;5.97;;
1879;SDS011;49285;49.002;8.390;2022-09-06T16:53:37;7.53;;;3.97;;
1879;SDS011;49285;49.002;8.390;2022-09-06T16:56:03;4.43;;;3.10;;
1879;SDS011;49285;49.002;8.390;2022-09-06T16:58:29;4.57;;;3.53;;
1879;SDS011;49285;49.002;8.390;2022-09-06T17:00:55;7.80;;;3.60;;